createdAt,value
2018-06-25T00:02:11.929Z,11.30
2018-06-25T00:04:39.976Z,11.60
2018-06-25T00:07:08.416Z,12.67
2018-06-25T00:09:36.574Z,11.63
2018-06-25T00:12:04.744Z,10.70
2018-06-25T00:14:33.142Z,10.80
2018-06-25T00:17:01.563Z,10.23
2018-06-25T00:19:30.059Z,10.00
2018-06-25T00:21:58.244Z,10.50
2018-06-25T00:24:26.688Z,11.30
2018-06-25T00:26:55.243Z,10.73
2018-06-25T00:29:23.348Z,9.97
2018-06-25T00:31:51.807Z,11.23
2018-06-25T00:34:20.216Z,10.90
2018-06-25T00:36:48.715Z,12.70
2018-06-25T00:39:16.827Z,11.10
2018-06-25T00:41:45.267Z,13.40
2018-06-25T00:44:13.694Z,13.17
2018-06-25T00:46:41.885Z,14.37
2018-06-25T00:49:10.417Z,13.67
2018-06-25T00:51:38.828Z,14.00
2018-06-25T00:54:07.932Z,13.60
2018-06-25T00:56:36.330Z,14.93
2018-06-25T00:59:16.053Z,13.50
2018-06-25T01:01:44.182Z,13.77
2018-06-25T01:04:12.622Z,14.80
2018-06-25T01:06:40.737Z,14.53
2018-06-25T01:09:10.394Z,15.40
2018-06-25T01:11:38.939Z,14.17
2018-06-25T01:14:07.613Z,13.93
2018-06-25T01:16:36.215Z,15.80
2018-06-25T01:19:04.693Z,15.97
2018-06-25T01:21:33.105Z,15.30
2018-06-25T01:24:01.510Z,14.17
2018-06-25T01:26:29.613Z,14.17
2018-06-25T01:28:58.028Z,12.90
2018-06-25T01:31:26.453Z,14.00
2018-06-25T01:33:54.819Z,13.00
2018-06-25T01:36:23.367Z,15.13
2018-06-25T01:38:51.489Z,14.20
2018-06-25T01:41:19.703Z,14.07
2018-06-25T01:43:48.215Z,14.20
2018-06-25T01:46:16.678Z,16.20
2018-06-25T01:48:45.093Z,16.20
2018-06-25T01:51:13.198Z,14.90
2018-06-25T01:53:41.660Z,13.90
2018-06-25T01:56:10.094Z,15.40
2018-06-25T01:58:38.238Z,14.67
2018-06-25T02:01:06.339Z,15.27
2018-06-25T02:03:34.561Z,15.70
2018-06-25T02:06:02.769Z,15.23
2018-06-25T02:08:30.885Z,16.67
2018-06-25T02:10:59.322Z,16.80
2018-06-25T02:13:27.428Z,16.40
2018-06-25T02:15:55.543Z,17.00
2018-06-25T02:18:24.082Z,15.07
2018-06-25T02:20:52.646Z,16.53
2018-06-25T02:23:20.948Z,17.10
2018-06-25T02:25:49.068Z,16.60
2018-06-25T02:28:17.506Z,15.50
2018-06-25T02:30:45.664Z,14.90
2018-06-25T02:33:13.770Z,15.33
2018-06-25T02:35:42.294Z,15.30
2018-06-25T02:38:10.747Z,16.10
2018-06-25T02:40:39.298Z,15.63
2018-06-25T02:43:07.444Z,14.50
2018-06-25T02:45:35.559Z,15.37
2018-06-25T02:48:04.028Z,15.50
2018-06-25T02:50:32.486Z,14.20
2018-06-25T02:53:00.908Z,15.67
2018-06-25T02:55:29.040Z,14.37
2018-06-25T02:57:57.498Z,14.50
2018-06-25T03:00:25.947Z,14.87
2018-06-25T03:02:54.400Z,14.80
2018-06-25T03:05:22.652Z,16.43
2018-06-25T03:07:51.242Z,14.53
2018-06-25T03:10:19.486Z,16.57
2018-06-25T03:12:47.934Z,16.10
2018-06-25T03:15:16.059Z,14.67
2018-06-25T03:17:44.507Z,14.07
2018-06-25T03:20:12.949Z,14.33
2018-06-25T03:22:41.178Z,14.00
2018-06-25T03:25:09.653Z,12.00
2018-06-25T03:27:38.151Z,9.20
2018-06-25T03:30:08.985Z,9.23
2018-06-25T03:32:37.502Z,8.87
2018-06-25T03:35:05.832Z,8.20
2018-06-25T03:37:33.950Z,7.47
2018-06-25T03:40:02.407Z,7.10
2018-06-25T03:42:30.519Z,6.97
2018-06-25T03:44:58.914Z,6.90
2018-06-25T03:47:27.279Z,7.80
2018-06-25T03:49:55.701Z,8.43
2018-06-25T03:52:24.392Z,7.93
2018-06-25T03:54:53.236Z,8.57
2018-06-25T03:57:21.885Z,8.93
2018-06-25T03:59:49.977Z,8.33
2018-06-25T04:02:18.115Z,8.10
2018-06-25T04:04:46.598Z,7.90
2018-06-25T04:07:15.031Z,9.10
2018-06-25T04:09:44.521Z,8.60
2018-06-25T04:12:12.667Z,8.67
2018-06-25T04:14:40.832Z,9.53
2018-06-25T04:17:08.928Z,8.17
2018-06-25T04:19:37.392Z,9.47
2018-06-25T04:22:05.749Z,9.60
2018-06-25T04:24:34.193Z,8.93
2018-06-25T04:27:02.297Z,7.87
2018-06-25T04:29:30.409Z,9.43
2018-06-25T04:31:58.520Z,10.30
2018-06-25T04:34:26.633Z,10.87
2018-06-25T04:36:55.081Z,8.70
2018-06-25T04:39:23.211Z,10.20
2018-06-25T04:41:51.353Z,8.97
2018-06-25T04:44:19.465Z,9.90
2018-06-25T04:46:47.891Z,10.07
2018-06-25T04:49:16.287Z,10.23
2018-06-25T04:51:44.683Z,8.40
2018-06-25T04:54:13.127Z,10.07
2018-06-25T04:56:41.621Z,9.07
2018-06-25T04:59:10.117Z,10.03
2018-06-25T05:01:38.533Z,10.67
2018-06-25T05:04:07.040Z,9.20
2018-06-25T05:06:35.515Z,10.50
2018-06-25T05:09:06.076Z,8.60
2018-06-25T05:11:34.530Z,8.10
2018-06-25T05:14:02.945Z,8.53
2018-06-25T05:16:31.351Z,8.37
2018-06-25T05:18:59.779Z,7.73
2018-06-25T05:21:28.498Z,7.80
2018-06-25T05:23:56.912Z,9.50
2018-06-25T05:26:25.589Z,8.30
2018-06-25T05:28:53.715Z,8.33
2018-06-25T05:31:22.258Z,8.40
2018-06-25T05:33:50.355Z,7.60
2018-06-25T05:36:18.765Z,8.70
2018-06-25T05:38:46.921Z,8.10
2018-06-25T05:41:15.473Z,7.30
2018-06-25T05:43:43.573Z,7.33
2018-06-25T05:46:12.004Z,7.07
2018-06-25T05:48:40.460Z,8.00
2018-06-25T05:51:08.997Z,8.13
2018-06-25T05:53:37.479Z,8.37
2018-06-25T05:56:05.922Z,7.70
2018-06-25T05:58:34.413Z,7.70
2018-06-25T06:01:02.945Z,6.60
2018-06-25T06:03:31.328Z,7.40
2018-06-25T06:05:59.730Z,6.87
2018-06-25T06:08:28.123Z,7.27
2018-06-25T06:10:56.530Z,7.17
2018-06-25T06:13:24.638Z,7.17
2018-06-25T06:15:53.074Z,9.60
2018-06-25T06:18:21.473Z,8.30
2018-06-25T06:20:49.563Z,7.67
2018-06-25T06:23:17.718Z,7.30
2018-06-25T06:25:46.277Z,8.30
2018-06-25T06:28:14.798Z,7.27
2018-06-25T06:30:43.210Z,6.63
2018-06-25T06:33:11.454Z,6.63
2018-06-25T06:35:39.846Z,6.80
2018-06-25T06:38:08.246Z,7.27
2018-06-25T06:40:36.377Z,6.97
2018-06-25T06:43:05.127Z,8.43
2018-06-25T06:45:33.527Z,8.17
2018-06-25T06:48:01.946Z,8.10
2018-06-25T06:50:30.386Z,7.63
2018-06-25T06:52:58.876Z,7.70
2018-06-25T06:55:27.343Z,8.23
2018-06-25T06:57:55.434Z,7.47
2018-06-25T07:00:23.874Z,8.10
2018-06-25T07:02:52.562Z,7.13
2018-06-25T07:05:21.280Z,6.40
2018-06-25T07:07:49.684Z,7.20
2018-06-25T07:10:18.224Z,7.30
2018-06-25T07:12:46.604Z,8.70
2018-06-25T07:15:14.971Z,7.07
2018-06-25T07:17:43.685Z,6.93
2018-06-25T07:20:11.803Z,6.80
2018-06-25T07:22:40.247Z,5.67
2018-06-25T07:25:08.694Z,5.40
2018-06-25T07:27:37.068Z,6.70
2018-06-25T07:30:05.759Z,5.77
2018-06-25T07:32:34.199Z,6.60
2018-06-25T07:35:03.154Z,5.53
2018-06-25T07:37:31.581Z,6.73
2018-06-25T07:39:59.985Z,7.00
2018-06-25T07:42:28.463Z,6.90
2018-06-25T07:44:56.903Z,6.20
2018-06-25T07:47:25.642Z,6.50
2018-06-25T07:49:54.043Z,7.00
2018-06-25T07:52:22.475Z,6.93
2018-06-25T07:54:50.909Z,6.10
2018-06-25T07:57:19.069Z,6.47
2018-06-25T07:59:47.646Z,6.77
2018-06-25T08:02:16.083Z,6.77
2018-06-25T08:04:44.602Z,5.77
2018-06-25T08:07:13.199Z,5.43
2018-06-25T08:09:41.638Z,5.40
2018-06-25T08:12:10.167Z,4.83
2018-06-25T08:14:38.571Z,5.40
2018-06-25T08:17:07.118Z,7.07
2018-06-25T08:19:35.558Z,4.60
2018-06-25T08:22:04.083Z,5.37
2018-06-25T08:24:32.488Z,4.53
2018-06-25T08:27:00.886Z,3.73
2018-06-25T08:29:29.313Z,4.40
2018-06-25T08:31:57.454Z,5.30
2018-06-25T08:34:25.785Z,5.40
2018-06-25T08:36:54.029Z,3.30
2018-06-25T08:39:22.299Z,3.37
2018-06-25T08:41:50.716Z,2.47
2018-06-25T08:44:19.175Z,2.27
2018-06-25T08:46:47.696Z,3.00
2018-06-25T08:49:15.809Z,2.67
2018-06-25T08:51:44.345Z,3.30
2018-06-25T08:54:12.859Z,2.80
2018-06-25T08:56:41.413Z,3.30
2018-06-25T08:59:10.000Z,3.10
2018-06-25T09:01:38.542Z,3.00
2018-06-25T09:04:07.035Z,3.80
2018-06-25T09:06:36.289Z,3.70
2018-06-25T09:09:07.874Z,3.17
2018-06-25T09:11:36.359Z,2.90
2018-06-25T09:14:05.472Z,4.20
2018-06-25T09:16:33.912Z,3.97
2018-06-25T09:19:02.322Z,4.10
2018-06-25T09:21:30.748Z,4.30
2018-06-25T09:23:59.283Z,4.57
2018-06-25T09:26:27.715Z,3.00
2018-06-25T09:28:56.214Z,4.13
2018-06-25T09:31:24.699Z,4.20
2018-06-25T09:33:53.066Z,3.50
2018-06-25T09:36:21.453Z,3.80
2018-06-25T09:38:50.006Z,3.50
2018-06-25T09:41:18.518Z,4.37
2018-06-25T09:43:46.853Z,4.43
2018-06-25T09:46:15.668Z,3.90
2018-06-25T09:48:43.822Z,3.60
2018-06-25T09:51:12.220Z,3.37
2018-06-25T09:53:40.734Z,3.63
2018-06-25T09:56:09.163Z,3.00
2018-06-25T09:58:37.648Z,3.30
2018-06-25T10:01:11.360Z,3.60
2018-06-25T10:03:40.953Z,3.43
2018-06-25T10:06:09.731Z,3.40
2018-06-25T10:08:38.185Z,3.87
2018-06-25T10:11:06.719Z,4.00
2018-06-25T10:13:34.838Z,4.10
2018-06-25T10:16:03.265Z,3.70
2018-06-25T10:18:31.674Z,4.07
2018-06-25T10:21:00.238Z,3.90
2018-06-25T10:23:28.328Z,3.63
2018-06-25T10:25:56.454Z,3.50
2018-06-25T10:28:24.857Z,3.40
2018-06-25T10:30:53.451Z,4.60
2018-06-25T10:33:21.900Z,3.60
2018-06-25T10:35:50.399Z,3.50
2018-06-25T10:38:18.939Z,4.00
2018-06-25T10:40:47.358Z,4.30
2018-06-25T10:43:15.769Z,3.40
2018-06-25T10:45:44.329Z,4.33
2018-06-25T10:48:12.889Z,3.87
2018-06-25T10:50:41.297Z,3.30
2018-06-25T10:53:09.717Z,3.60
2018-06-25T10:55:38.117Z,2.90
2018-06-25T10:58:06.624Z,3.30
2018-06-25T11:00:35.079Z,3.43
2018-06-25T11:03:03.169Z,3.13
2018-06-25T11:05:31.763Z,2.77
2018-06-25T11:08:00.171Z,3.43
2018-06-25T11:10:28.614Z,3.33
2018-06-25T11:12:57.115Z,3.60
2018-06-25T11:15:25.593Z,2.93
2018-06-25T11:17:54.015Z,2.97
2018-06-25T11:20:22.386Z,3.60
2018-06-25T11:22:50.828Z,2.80
2018-06-25T11:25:18.942Z,3.00
2018-06-25T11:27:47.453Z,3.00
2018-06-25T11:30:15.846Z,2.77
2018-06-25T11:32:44.305Z,3.20
2018-06-25T11:35:13.058Z,2.93
2018-06-25T11:37:41.253Z,3.60
2018-06-25T11:40:09.676Z,3.00
2018-06-25T11:42:38.130Z,2.90
2018-06-25T11:45:06.601Z,2.40
2018-06-25T11:47:34.991Z,2.40
2018-06-25T11:50:03.633Z,2.33
2018-06-25T11:52:31.735Z,2.70
2018-06-25T11:55:00.189Z,2.50
2018-06-25T11:57:28.645Z,2.00
2018-06-25T11:59:57.073Z,2.60
2018-06-25T12:02:25.640Z,2.10
2018-06-25T12:04:54.078Z,2.70
2018-06-25T12:07:22.485Z,2.70
2018-06-25T12:09:50.901Z,2.37
2018-06-25T12:12:19.353Z,2.73
2018-06-25T12:14:47.751Z,3.90
2018-06-25T12:17:16.190Z,2.60
2018-06-25T12:19:44.649Z,2.70
2018-06-25T12:22:13.098Z,2.40
2018-06-25T12:24:41.611Z,2.00
2018-06-25T12:27:10.034Z,2.33
2018-06-25T12:29:38.149Z,2.63
2018-06-25T12:32:06.278Z,2.77
2018-06-25T12:34:34.377Z,2.87
2018-06-25T12:37:02.526Z,2.43
2018-06-25T12:39:30.623Z,2.80
2018-06-25T12:41:58.749Z,2.63
2018-06-25T12:44:27.041Z,2.80
2018-06-25T12:46:55.711Z,3.07
2018-06-25T12:49:23.890Z,2.67
2018-06-25T12:51:52.329Z,2.20
2018-06-25T12:54:20.729Z,2.70
2018-06-25T12:56:49.208Z,2.20
2018-06-25T12:59:17.307Z,2.60
2018-06-25T13:01:45.765Z,2.70
2018-06-25T13:04:14.240Z,2.70
2018-06-25T13:06:42.693Z,1.97
2018-06-25T13:09:12.862Z,1.97
2018-06-25T13:11:41.091Z,1.90
2018-06-25T13:14:10.253Z,1.97
2018-06-25T13:16:38.351Z,1.80
2018-06-25T13:19:07.134Z,2.03
2018-06-25T13:21:35.585Z,1.90
2018-06-25T13:24:04.105Z,2.50
2018-06-25T13:26:32.665Z,2.60
2018-06-25T13:29:01.107Z,2.27
2018-06-25T13:31:29.211Z,2.80
2018-06-25T13:33:57.669Z,2.10
2018-06-25T13:36:26.108Z,1.90
2018-06-25T13:38:54.575Z,2.00
2018-06-25T13:41:23.121Z,1.70
2018-06-25T13:43:51.560Z,2.30
2018-06-25T13:46:19.700Z,2.17
2018-06-25T13:48:48.132Z,1.90
2018-06-25T13:51:16.239Z,1.70
2018-06-25T13:53:44.451Z,2.00
2018-06-25T13:56:19.481Z,3.00
2018-06-25T13:58:47.580Z,4.90
2018-06-25T14:01:15.749Z,2.00
2018-06-25T14:03:44.202Z,2.13
2018-06-25T14:06:12.637Z,2.10
2018-06-25T14:08:41.090Z,2.20
2018-06-25T14:11:09.571Z,1.63
2018-06-25T14:13:37.681Z,1.93
2018-06-25T14:16:06.190Z,2.00
2018-06-25T14:18:34.738Z,2.20
2018-06-25T14:21:03.194Z,1.83
2018-06-25T14:23:31.657Z,2.10
2018-06-25T14:26:05.050Z,2.20
2018-06-25T14:28:35.542Z,1.80
2018-06-25T14:31:09.395Z,1.87
2018-06-25T14:33:40.696Z,2.10
2018-06-25T14:36:09.709Z,2.50
2018-06-25T14:38:38.189Z,2.00
2018-06-25T14:41:06.813Z,2.20
2018-06-25T14:43:35.757Z,2.30
2018-06-25T14:46:05.099Z,2.10
2018-06-25T14:48:33.656Z,2.47
2018-06-25T14:51:02.833Z,2.50
2018-06-25T14:53:31.361Z,2.00
2018-06-25T14:55:59.823Z,2.70
2018-06-25T14:58:28.278Z,2.43
2018-06-25T15:00:56.714Z,2.10
2018-06-25T15:03:24.858Z,2.50
2018-06-25T15:05:53.316Z,2.50
2018-06-25T15:08:21.493Z,2.50
2018-06-25T15:10:50.051Z,2.60
2018-06-25T15:13:18.448Z,2.97
2018-06-25T15:15:46.942Z,3.07
2018-06-25T15:18:15.373Z,2.47
2018-06-25T15:20:43.826Z,2.20
2018-06-25T15:23:12.357Z,2.63
2018-06-25T15:25:40.744Z,2.60
2018-06-25T15:28:09.254Z,1.97
2018-06-25T15:30:37.664Z,3.03
2018-06-25T15:33:06.772Z,2.37
2018-06-25T15:35:35.196Z,2.50
2018-06-25T15:38:03.724Z,2.83
2018-06-25T15:40:32.236Z,2.90
2018-06-25T15:43:00.676Z,2.90
2018-06-25T15:45:28.785Z,2.60
2018-06-25T15:47:57.342Z,2.67
2018-06-25T15:50:25.811Z,2.73
2018-06-25T15:52:54.338Z,2.60
2018-06-25T15:55:22.820Z,2.60
2018-06-25T15:57:51.405Z,3.03
2018-06-25T16:00:19.564Z,2.70
2018-06-25T16:02:48.104Z,2.30
2018-06-25T16:05:17.274Z,2.83
2018-06-25T16:07:46.335Z,2.63
2018-06-25T16:10:15.025Z,3.20
2018-06-25T16:12:43.505Z,3.20
2018-06-25T16:15:11.693Z,2.60
2018-06-25T16:17:40.122Z,3.27
2018-06-25T16:20:08.650Z,2.90
2018-06-25T16:22:37.137Z,2.80
2018-06-25T16:25:06.357Z,3.07
2018-06-25T16:27:34.796Z,3.13
2018-06-25T16:30:03.456Z,3.40
2018-06-25T16:32:31.613Z,2.63
2018-06-25T16:35:00.185Z,3.33
2018-06-25T16:37:28.891Z,3.00
2018-06-25T16:39:57.426Z,2.60
2018-06-25T16:42:25.968Z,2.80
2018-06-25T16:44:54.421Z,3.27
2018-06-25T16:47:22.657Z,3.00
2018-06-25T16:49:51.138Z,3.27
2018-06-25T16:52:19.645Z,3.83
2018-06-25T16:54:48.212Z,2.80
2018-06-25T16:57:16.705Z,3.50
2018-06-25T16:59:45.308Z,3.63
2018-06-25T17:02:13.413Z,2.93
2018-06-25T17:04:42.485Z,2.90
2018-06-25T17:07:10.963Z,3.33
2018-06-25T17:09:39.403Z,2.87
2018-06-25T17:12:07.981Z,3.63
2018-06-25T17:14:36.167Z,3.87
2018-06-25T17:17:04.363Z,3.90
2018-06-25T17:19:33.114Z,3.73
2018-06-25T17:22:02.162Z,4.53
2018-06-25T17:24:30.637Z,4.77
2018-06-25T17:26:59.224Z,5.40
2018-06-25T17:29:28.358Z,4.33
2018-06-25T17:31:56.819Z,4.60
2018-06-25T17:34:24.997Z,4.20
2018-06-25T17:36:53.523Z,4.30
2018-06-25T17:39:22.024Z,4.93
2018-06-25T17:41:50.511Z,4.60
2018-06-25T17:44:19.295Z,5.43
2018-06-25T17:46:47.887Z,5.93
2018-06-25T17:49:17.095Z,5.57
2018-06-25T17:51:45.642Z,5.03
2018-06-25T17:54:14.764Z,5.30
2018-06-25T17:56:43.300Z,6.30
2018-06-25T17:59:12.355Z,5.60
2018-06-25T18:01:42.077Z,5.03
2018-06-25T18:04:12.197Z,5.77
2018-06-25T18:06:40.692Z,6.37
2018-06-25T18:09:10.668Z,5.53
2018-06-25T18:11:39.232Z,6.10
2018-06-25T18:14:07.772Z,5.90
2018-06-25T18:16:36.278Z,5.87
2018-06-25T18:19:04.966Z,5.07
2018-06-25T18:21:33.376Z,5.40
2018-06-25T18:24:03.358Z,5.87
2018-06-25T18:26:32.628Z,5.67
2018-06-25T18:29:01.561Z,5.50
2018-06-25T18:31:29.915Z,6.10
2018-06-25T18:33:59.342Z,6.20
2018-06-25T18:36:27.888Z,6.43
2018-06-25T18:38:56.608Z,6.53
2018-06-25T18:41:26.037Z,6.30
2018-06-25T18:43:56.658Z,6.40
2018-06-25T18:46:25.310Z,6.90
2018-06-25T18:48:54.821Z,7.63
2018-06-25T18:51:23.368Z,6.60
2018-06-25T18:53:53.388Z,6.33
2018-06-25T18:56:21.614Z,5.77
2018-06-25T18:58:50.855Z,6.63
2018-06-25T19:01:19.762Z,5.47
2018-06-25T19:03:48.012Z,6.73
2018-06-25T19:06:18.160Z,6.23
2018-06-25T19:08:47.131Z,6.47
2018-06-25T19:11:15.307Z,7.03
2018-06-25T19:13:43.874Z,7.13
2018-06-25T19:16:12.504Z,7.67
2018-06-25T19:18:40.962Z,6.67
2018-06-25T19:21:11.182Z,6.87
2018-06-25T19:23:39.464Z,7.27
2018-06-25T19:26:08.766Z,7.20
2018-06-25T19:28:38.013Z,6.70
2018-06-25T19:31:07.408Z,6.17
2018-06-25T19:33:38.250Z,6.73
2018-06-25T19:36:06.431Z,7.10
2018-06-25T19:38:34.790Z,6.73
2018-06-25T19:41:03.023Z,8.20
2018-06-25T19:43:34.000Z,7.50
2018-06-25T19:46:02.249Z,7.50
2018-06-25T19:48:30.842Z,7.47
2018-06-25T19:50:59.425Z,7.60
2018-06-25T19:53:27.601Z,7.40
2018-06-25T19:55:56.754Z,7.40
2018-06-25T19:58:25.056Z,8.40
2018-06-25T20:00:53.775Z,7.63
2018-06-25T20:03:21.937Z,7.27
2018-06-25T20:05:50.464Z,8.10
2018-06-25T20:08:20.068Z,7.53
2018-06-25T20:10:50.797Z,8.27
2018-06-25T20:13:19.079Z,7.93
2018-06-25T20:15:47.310Z,6.70
2018-06-25T20:18:15.496Z,7.13
2018-06-25T20:20:44.120Z,7.57
2018-06-25T20:23:12.298Z,7.30
2018-06-25T20:25:40.543Z,7.43
2018-06-25T20:28:09.023Z,7.23
2018-06-25T20:30:37.610Z,7.67
2018-06-25T20:33:06.863Z,7.33
2018-06-25T20:35:35.430Z,7.30
2018-06-25T20:38:03.685Z,7.47
2018-06-25T20:40:32.223Z,7.77
2018-06-25T20:43:00.859Z,7.80
2018-06-25T20:45:29.149Z,7.40
2018-06-25T20:47:57.711Z,7.20
2018-06-25T20:50:26.244Z,7.90
2018-06-25T20:52:54.403Z,7.30
2018-06-25T20:55:23.041Z,8.50
2018-06-25T20:57:51.545Z,7.13
2018-06-25T21:00:20.038Z,7.70
2018-06-25T21:02:48.615Z,7.17
2018-06-25T21:05:17.092Z,7.40
2018-06-25T21:07:45.549Z,7.53
2018-06-25T21:10:13.999Z,7.90
2018-06-25T21:12:42.234Z,8.07
2018-06-25T21:15:10.825Z,7.20
2018-06-25T21:17:39.017Z,7.30
2018-06-25T21:20:07.501Z,7.70
2018-06-25T21:22:35.997Z,8.10
2018-06-25T21:25:04.767Z,7.67
2018-06-25T21:27:33.337Z,7.63
2018-06-25T21:30:01.523Z,8.13
2018-06-25T21:32:29.692Z,7.47
2018-06-25T21:34:58.179Z,8.17
2018-06-25T21:37:26.679Z,7.00
2018-06-25T21:39:54.810Z,8.87
2018-06-25T21:42:23.313Z,7.20
2018-06-25T21:44:51.439Z,8.50
2018-06-25T21:47:19.883Z,9.40
2018-06-25T21:49:48.337Z,8.67
2018-06-25T21:52:16.753Z,7.40
2018-06-25T21:54:45.243Z,8.37
2018-06-25T21:57:13.387Z,8.60
2018-06-25T21:59:41.530Z,8.80
2018-06-25T22:02:09.981Z,8.20
2018-06-25T22:04:38.087Z,8.80
2018-06-25T22:07:06.531Z,8.50
2018-06-25T22:09:34.631Z,9.40
2018-06-25T22:12:03.046Z,8.67
2018-06-25T22:14:31.536Z,9.27
2018-06-25T22:16:59.669Z,8.30
2018-06-25T22:19:28.136Z,9.00
2018-06-25T22:21:56.613Z,8.70
2018-06-25T22:24:24.925Z,9.33
2018-06-25T22:26:53.353Z,9.70
2018-06-25T22:29:21.803Z,9.57
2018-06-25T22:31:50.252Z,8.97
2018-06-25T22:34:18.686Z,9.33
2018-06-25T22:36:46.813Z,9.47
2018-06-25T22:39:15.247Z,8.90
2018-06-25T22:41:43.700Z,9.07
2018-06-25T22:44:13.257Z,9.33
2018-06-25T22:46:42.855Z,9.67
2018-06-25T22:49:11.357Z,10.20
2018-06-25T22:51:39.858Z,9.17
2018-06-25T22:54:08.640Z,9.20
2018-06-25T22:56:36.820Z,10.50
2018-06-25T22:59:05.752Z,11.53
2018-06-25T23:01:33.892Z,9.20
2018-06-25T23:04:02.312Z,10.80
2018-06-25T23:06:30.438Z,9.53
2018-06-25T23:08:58.866Z,10.73
2018-06-25T23:11:26.988Z,9.83
2018-06-25T23:13:55.419Z,9.20
2018-06-25T23:16:23.550Z,10.60
2018-06-25T23:18:51.944Z,8.73
2018-06-25T23:21:20.054Z,10.97
2018-06-25T23:23:48.480Z,9.40
2018-06-25T23:26:16.578Z,10.90
2018-06-25T23:28:45.007Z,10.90
2018-06-25T23:31:13.396Z,9.23
2018-06-25T23:33:41.814Z,9.30
2018-06-25T23:36:09.924Z,10.40
2018-06-25T23:38:38.335Z,10.27
2018-06-25T23:41:06.563Z,10.70
2018-06-25T23:43:34.712Z,10.23
2018-06-25T23:46:02.806Z,11.27
2018-06-25T23:48:31.228Z,12.30
2018-06-25T23:50:59.624Z,10.90
2018-06-25T23:53:28.020Z,11.60
2018-06-25T23:55:56.165Z,12.03
2018-06-25T23:58:24.289Z,12.73
